Aviation Digital Data Service (ADDS)

Output produced by METARs form (0421 UTC 07 March 2015)
found at http://aviationweather.gov/adds/metars/
 
KMBS 062347Z 0700/0724 22013G20KT P6SM BKN080 
     FM070200 22010KT P6SM SCT025 BKN040 OVC120 
     FM070400 24010KT P6SM OVC020 
     FM071600 24013G20KT P6SM BKN025 OVC040